createdAt,value
2022-12-27T00:02:40.726Z,99362.41
2022-12-27T00:07:43.772Z,99363.06
2022-12-27T00:12:48.002Z,99365.63
2022-12-27T00:17:50.939Z,99374.84
2022-12-27T00:22:53.941Z,99377.28
2022-12-27T00:27:58.434Z,99379.88
2022-12-27T00:33:01.315Z,99392.28
2022-12-27T00:38:04.942Z,99422.81
2022-12-27T00:43:09.781Z,99425.06
2022-12-27T00:48:13.446Z,99444.56
2022-12-27T00:53:16.524Z,99459.66
2022-12-27T00:58:20.782Z,99463.75
2022-12-27T01:03:23.695Z,99465.69
2022-12-27T01:08:26.590Z,99474.44
2022-12-27T01:13:31.145Z,99480.63
2022-12-27T01:18:34.790Z,99482.44
2022-12-27T01:23:38.120Z,99498.16
2022-12-27T01:28:42.378Z,99523.66
2022-12-27T01:33:45.604Z,99526.25
2022-12-27T01:38:49.186Z,99533.72
2022-12-27T01:43:53.419Z,99537.13
2022-12-27T01:48:56.904Z,99532.91
2022-12-27T01:53:59.839Z,99542.66
2022-12-27T01:59:09.366Z,99525.59
2022-12-27T02:04:16.781Z,99513.25
2022-12-27T02:09:26.632Z,99523.81
2022-12-27T02:14:33.326Z,99554.50
2022-12-27T02:19:46.469Z,99562.28
2022-12-27T02:25:08.257Z,99568.31
2022-12-27T02:30:13.904Z,99569.44
2022-12-27T02:35:24.172Z,99573.44
2022-12-27T02:40:46.329Z,99589.63
2022-12-27T02:46:16.064Z,99597.59
2022-12-27T02:51:55.645Z,99585.88
2022-12-27T02:57:10.898Z,99617.78
2022-12-27T03:02:44.757Z,99628.72
2022-12-27T03:07:52.585Z,99635.94
2022-12-27T03:13:25.837Z,99631.13
2022-12-27T03:18:50.322Z,99645.63
2022-12-27T03:24:14.474Z,99665.53
2022-12-27T03:29:38.049Z,99661.97
2022-12-27T03:34:48.465Z,99676.38
2022-12-27T03:39:57.652Z,99679.84
2022-12-27T03:45:00.611Z,99696.31
2022-12-27T03:50:10.922Z,99703.34
2022-12-27T03:55:14.354Z,99694.34
2022-12-27T04:00:18.011Z,99703.53
2022-12-27T04:05:22.449Z,99696.47
2022-12-27T04:10:42.883Z,99696.63
2022-12-27T04:16:03.254Z,99699.75
2022-12-27T04:21:24.992Z,99722.97
2022-12-27T04:26:45.259Z,99719.66
2022-12-27T04:32:05.481Z,99731.50
2022-12-27T04:37:11.668Z,99724.34
2022-12-27T04:42:31.833Z,99719.59
2022-12-27T04:47:52.006Z,99721.41
2022-12-27T04:53:13.691Z,99730.19
2022-12-27T04:58:17.646Z,99727.28
2022-12-27T05:03:23.449Z,99742.06
2022-12-27T05:08:44.971Z,99741.41
2022-12-27T05:14:03.054Z,99738.38
2022-12-27T05:19:07.715Z,99736.41
2022-12-27T05:24:29.435Z,99739.81
2022-12-27T05:29:35.994Z,99736.56
2022-12-27T05:34:38.871Z,99737.47
2022-12-27T05:39:43.177Z,99732.28
2022-12-27T05:44:46.045Z,99733.78
2022-12-27T05:49:48.950Z,99742.91
2022-12-27T05:54:53.174Z,99753.09
2022-12-27T05:59:56.082Z,99757.09
2022-12-27T06:04:58.978Z,99760.66
2022-12-27T06:10:03.431Z,99757.72
2022-12-27T06:15:07.851Z,99763.72
2022-12-27T06:20:11.292Z,99767.28
2022-12-27T06:25:15.583Z,99770.44
2022-12-27T06:30:18.689Z,99777.19
2022-12-27T06:35:21.629Z,99769.28
2022-12-27T06:40:25.913Z,99792.13
2022-12-27T06:45:28.907Z,99791.56
2022-12-27T06:50:32.177Z,99802.63
2022-12-27T06:55:36.471Z,99799.63
2022-12-27T07:00:39.417Z,99813.53
2022-12-27T07:05:42.322Z,99821.69
2022-12-27T07:10:46.721Z,99824.81
2022-12-27T07:15:50.315Z,99847.84
2022-12-27T07:20:53.285Z,99849.19
2022-12-27T07:26:03.396Z,99847.72
2022-12-27T07:31:09.157Z,99839.38
2022-12-27T07:36:16.398Z,99853.56
2022-12-27T07:41:22.297Z,99855.75
2022-12-27T07:46:26.962Z,99865.00
2022-12-27T07:51:29.965Z,99871.84
2022-12-27T07:56:34.262Z,99879.44
2022-12-27T08:01:57.143Z,99877.63
2022-12-27T08:07:05.411Z,99878.25
2022-12-27T08:12:10.521Z,99874.72
2022-12-27T08:17:20.228Z,99876.59
2022-12-27T08:22:24.520Z,99886.66
2022-12-27T08:27:28.768Z,99897.00
2022-12-27T08:32:31.713Z,99909.84
2022-12-27T08:37:34.856Z,99905.69
2022-12-27T08:42:39.083Z,99908.88
2022-12-27T08:47:42.069Z,99908.28
2022-12-27T08:52:44.934Z,99926.75
2022-12-27T08:57:49.206Z,99925.38
2022-12-27T09:02:52.138Z,99926.03
2022-12-27T09:07:55.321Z,99931.97
2022-12-27T09:12:59.540Z,99958.81
2022-12-27T09:18:03.188Z,99937.97
2022-12-27T09:23:06.146Z,99939.00
2022-12-27T09:28:10.351Z,99934.22
2022-12-27T09:33:13.243Z,99920.59
2022-12-27T09:38:16.152Z,99942.84
2022-12-27T09:43:27.497Z,99945.16
2022-12-27T09:48:35.058Z,99933.56
2022-12-27T09:53:46.144Z,99912.34
2022-12-27T09:58:53.183Z,99911.63
2022-12-27T10:03:56.215Z,99915.78
2022-12-27T10:09:06.098Z,99904.72
2022-12-27T10:14:29.324Z,99885.97
2022-12-27T10:19:43.406Z,99900.25
2022-12-27T10:24:51.570Z,99902.63
2022-12-27T10:29:57.372Z,99910.44
2022-12-27T10:35:03.567Z,99913.91
2022-12-27T10:40:13.307Z,99907.78
2022-12-27T10:45:32.322Z,99901.97
2022-12-27T10:50:35.266Z,99896.84
2022-12-27T10:55:39.443Z,99893.91
2022-12-27T11:00:54.472Z,99898.88
2022-12-27T11:06:02.115Z,99906.00
2022-12-27T11:11:16.089Z,99907.84
2022-12-27T11:16:28.854Z,99901.34
2022-12-27T11:21:32.655Z,99909.16
2022-12-27T11:26:42.868Z,99914.88
2022-12-27T11:31:49.019Z,99923.41
2022-12-27T11:36:56.118Z,99919.16
2022-12-27T11:42:02.202Z,99922.06
2022-12-27T11:47:13.609Z,99910.38
2022-12-27T11:52:49.194Z,99940.00
2022-12-27T11:58:18.768Z,99934.16
2022-12-27T12:03:49.354Z,99933.69
2022-12-27T12:09:22.050Z,99929.47
2022-12-27T12:14:54.209Z,99929.94
2022-12-27T12:20:23.828Z,99911.72
2022-12-27T12:25:53.786Z,99910.91
2022-12-27T12:31:12.343Z,99918.56
2022-12-27T12:36:40.848Z,99912.25
2022-12-27T12:42:16.341Z,99907.19
2022-12-27T12:47:34.177Z,99915.34
2022-12-27T12:53:01.983Z,99930.59
2022-12-27T12:58:18.645Z,99936.44
2022-12-27T13:03:59.332Z,99940.69
2022-12-27T13:09:11.950Z,99940.41
2022-12-27T13:14:29.347Z,99933.88
2022-12-27T13:19:58.927Z,99936.63
2022-12-27T13:25:26.066Z,99938.06
2022-12-27T13:30:35.193Z,99934.19
2022-12-27T13:36:06.963Z,99935.31
2022-12-27T13:41:30.733Z,99944.94
2022-12-27T13:46:50.507Z,99947.81
2022-12-27T13:51:57.303Z,99954.03
2022-12-27T13:57:19.146Z,99951.03
2022-12-27T14:02:52.080Z,99959.53
2022-12-27T14:08:06.208Z,99943.25
2022-12-27T14:13:11.687Z,99937.03
2022-12-27T14:18:30.797Z,99950.72
2022-12-27T14:23:57.433Z,99965.00
2022-12-27T14:29:44.160Z,99961.09
2022-12-27T14:35:25.455Z,99971.47
2022-12-27T14:40:53.217Z,99969.63
2022-12-27T14:46:32.792Z,99976.47
2022-12-27T14:52:01.636Z,99970.75
2022-12-27T14:57:18.107Z,99983.75
2022-12-27T15:02:37.155Z,99987.97
2022-12-27T15:08:04.913Z,99986.28
2022-12-27T15:13:16.619Z,99980.75
2022-12-27T15:18:39.808Z,99986.16
2022-12-27T15:23:52.714Z,99984.25
2022-12-27T15:29:27.181Z,99977.16
2022-12-27T15:34:44.974Z,99975.88
2022-12-27T15:39:51.087Z,99979.19
2022-12-27T15:45:04.355Z,99975.22
2022-12-27T15:50:45.622Z,99973.28
2022-12-27T15:56:12.268Z,99969.00
2022-12-27T16:01:28.813Z,99970.28
2022-12-27T16:06:55.658Z,99974.66
2022-12-27T16:12:06.897Z,99985.63
2022-12-27T16:17:31.434Z,99995.16
2022-12-27T16:22:39.321Z,99995.38
2022-12-27T16:27:44.443Z,99991.94
2022-12-27T16:32:50.064Z,99992.91
2022-12-27T16:37:57.203Z,99981.75
2022-12-27T16:43:42.277Z,99983.84
2022-12-27T16:49:04.451Z,99993.97
2022-12-27T16:54:23.305Z,99999.03
2022-12-27T16:59:57.673Z,100003.78
2022-12-27T17:05:01.520Z,99999.84
2022-12-27T17:10:42.926Z,99992.56
2022-12-27T17:15:55.057Z,99984.00
2022-12-27T17:21:04.772Z,99982.31
2022-12-27T17:26:47.458Z,99978.81
2022-12-27T17:31:58.409Z,99986.78
2022-12-27T17:37:12.603Z,99991.69
2022-12-27T17:42:42.036Z,99988.94
2022-12-27T17:48:03.725Z,99994.13
2022-12-27T17:53:36.700Z,99981.78
2022-12-27T17:58:39.759Z,99990.69
2022-12-27T18:03:48.388Z,99979.63
2022-12-27T18:08:52.086Z,99982.06
2022-12-27T18:13:58.983Z,99983.19
2022-12-27T18:19:03.597Z,99990.94
2022-12-27T18:24:24.703Z,99976.94
2022-12-27T18:29:27.665Z,99983.75
2022-12-27T18:34:38.158Z,99977.34
2022-12-27T18:39:43.338Z,99971.41
2022-12-27T18:44:49.311Z,99992.44
2022-12-27T18:49:56.644Z,99989.19
2022-12-27T18:55:14.844Z,99992.13
2022-12-27T19:00:22.748Z,99977.66
2022-12-27T19:05:31.222Z,99971.41
2022-12-27T19:10:34.303Z,99973.22
2022-12-27T19:15:41.453Z,99971.50
2022-12-27T19:20:53.890Z,99965.88
2022-12-27T19:26:06.752Z,99972.19
2022-12-27T19:31:19.851Z,99958.16
2022-12-27T19:36:27.795Z,99952.38
2022-12-27T19:41:31.847Z,99957.28
2022-12-27T19:46:34.830Z,99951.66
2022-12-27T19:51:39.576Z,99956.28
2022-12-27T19:56:42.762Z,99956.56
2022-12-27T20:01:46.660Z,99968.91
2022-12-27T20:06:51.092Z,99972.13
2022-12-27T20:11:54.366Z,99967.47
2022-12-27T20:16:57.282Z,99947.28
2022-12-27T20:22:01.996Z,99950.50
2022-12-27T20:27:05.111Z,99960.75
2022-12-27T20:32:08.138Z,99962.56
2022-12-27T20:37:12.452Z,99960.59
2022-12-27T20:42:15.449Z,99945.94
2022-12-27T20:47:18.456Z,99951.03
2022-12-27T20:52:28.837Z,99952.19
2022-12-27T20:57:34.766Z,99943.72
2022-12-27T21:02:39.774Z,99945.94
2022-12-27T21:07:44.177Z,99931.22
2022-12-27T21:12:47.042Z,99928.22
2022-12-27T21:17:49.927Z,99923.59
2022-12-27T21:22:54.238Z,99915.41
2022-12-27T21:27:57.154Z,99914.44
2022-12-27T21:33:00.038Z,99918.94
2022-12-27T21:38:04.454Z,99902.91
2022-12-27T21:43:07.380Z,99904.91
2022-12-27T21:48:10.290Z,99902.47
2022-12-27T21:53:15.984Z,99899.16
2022-12-27T21:58:18.923Z,99890.81
2022-12-27T22:03:22.007Z,99878.91
2022-12-27T22:08:26.407Z,99875.09
2022-12-27T22:13:29.961Z,99873.72
2022-12-27T22:18:34.667Z,99867.41
2022-12-27T22:23:40.620Z,99865.66
2022-12-27T22:28:44.299Z,99861.75
2022-12-27T22:33:48.039Z,99849.44
2022-12-27T22:38:53.689Z,99852.25
2022-12-27T22:43:58.383Z,99854.53
2022-12-27T22:49:02.407Z,99844.66
2022-12-27T22:54:08.626Z,99847.22
2022-12-27T22:59:12.910Z,99850.84
2022-12-27T23:04:16.006Z,99834.72
2022-12-27T23:09:20.298Z,99828.13
2022-12-27T23:14:23.440Z,99824.94
2022-12-27T23:19:26.286Z,99815.28
2022-12-27T23:24:30.633Z,99812.63
2022-12-27T23:29:33.613Z,99804.84
2022-12-27T23:34:36.491Z,99792.88
2022-12-27T23:39:41.129Z,99768.56
2022-12-27T23:44:44.053Z,99775.22
2022-12-27T23:49:46.930Z,99777.56
2022-12-27T23:54:51.190Z,99783.00
2022-12-27T23:59:55.385Z,99778.16
